Terminal Aerodrome Forecast
Issued by NWS

Home | Current Version | Previous Version | Text Only | Print | Product List | Glossary On
Versions: 1 2 3 4 5 6 7 8 9 10 11 12 13 14 15 16 17 18 19 20
000
FTAK31 PANC 161738
TAFADQ
TAF
PADQ 161738Z 1618/1718 30005KT P6SM -RA SCT009 OVC016
      TEMPO 1618/1621 P6SM NSW SCT015 OVC025
     FM170200 02015KT 5SM -RA BR OVC015
     FM171200 04008KT 3SM -RA BR OVC015=

USA.gov is the U.S. government's official web portal to all federal, state and local government web resources and services.